This is the latest recevied weather packets stored in our database for station/object TG5ALY-16. If no packets are shown the sender has not sent any weather packets the latest 10 day(s).
| Time | Temp. | Humidity | Pressure | Rain* | Wind** | Luminosity | Snow |
|---|---|---|---|---|---|---|---|
| 1778216131 | 15° C | 86% | 1018 hPa | 0 mm | - | - | - |
| 1778215530 | 15° C | 85% | 1018 hPa | 0 mm | - | - | - |
| 1778214929 | 15° C | 83% | 1018 hPa | 0 mm | - | - | - |
| 1778214329 | 15° C | 83% | 1018 hPa | 0 mm | - | - | - |
| 1778213728 | 15° C | 83% | 1018 hPa | 0 mm | - | - | - |
| 1778213127 | 15° C | 83% | 1018 hPa | 0 mm | - | - | - |
| 1778212526 | 15° C | 85% | 1018 hPa | 0 mm | - | - | - |
| 1778211926 | 15° C | 85% | 1018 hPa | 0 mm | - | - | - |
| 1778211325 | 15.56° C | 85% | 1018 hPa | 0 mm | - | - | - |
| 1778210725 | 15.56° C | 85% | 1018 hPa | 0 mm | - | - | - |
| 1778210124 | 15.56° C | 86% | 1018 hPa | 0 mm | - | - | - |
| 1778209523 | 15.56° C | 86% | 1018 hPa | 0 mm | - | - | - |
| 1778208922 | 16.11° C | 85% | 1018 hPa | 0 mm | - | - | - |
| 1778208322 | 16.11° C | 85% | 1018 hPa | 0 mm | - | - | - |
| 1778207721 | 16.11° C | 87% | 1018 hPa | 0 mm | - | - | - |
| 1778207120 | 16.11° C | 87% | 1017 hPa | 0 mm | - | - | - |
| 1778206520 | 16.67° C | 87% | 1017 hPa | 0 mm | - | - | - |
| 1778205919 | 16.67° C | 88% | 1017 hPa | 0 mm | - | - | - |
| 1778205319 | 14.44° C | 90% | 1017 hPa | 0 mm | - | - | - |
| 1778204718 | 13.89° C | 90% | 1017 hPa | 0 mm | - | - | - |
| 1778204117 | 17.22° C | 85% | 1017 hPa | 0 mm | - | - | - |
| 1778203517 | 17.22° C | 85% | 1016 hPa | 0 mm | - | - | - |
| 1778202916 | 17.78° C | 85% | 1016 hPa | 0 mm | - | - | - |
| 1778202315 | 17.78° C | 85% | 1016 hPa | 0 mm | - | - | - |
| 1778201715 | 17.78° C | 84% | 1016 hPa | 0 mm | - | - | - |
* Rain latest hour (hover to see other rain measurements)
** Current wind speed in m/s (hover to see current wind gust speed)